Stalybridge, United Kingdom
Current Conditions -  °F | °C
As of 1:20 PM on Wednesday 26 Nov 2014 (Local Time) from EGCC Reporting Station
Broken Clouds Broken Clouds  
Wind Chill:   Ceiling: 1800
Heat Index:   Visibility: 6mi
Dew Point:   Wind: 6mph
Humidity: 93%   Direction: 80°E
Pressure: 29.85"   Gusts: NA
Location:  53.48°N, 2.05°W
Report Text: EGCC 261320Z 08005KT 9999 SCT013 BKN018 08/07 Q1011
Loading
Personal Weather Stations






























Interactive Weather Map New forecast layout! Learn more

10-Day Weather Forecast

Advertisements
Track Severe Weather on mobile